Impacts TAF Board
For situational awareness. Not to be used for flight planning purposes.
IDs:

KFLL - Ft Lauderdale-Hollyw, FL, US

Issued at 2346 UTC 23 May 2019
Updated at 0059 UTC 24 May 2019
Potential Impact None Slight Moderate High
Time0053Z 24/01Z 24/02Z 24/03Z 24/04Z 24/05Z 24/06Z 24/07Z 24/08Z 24/09Z 24/10Z 24/11Z 24/12Z 24/13Z>>
Type OBS PRVL PRVL PRVL PRVL PRVL PRVL PRVL PRVL PRVL PRVL PRVL PRVL PRVL
VIS 10 >6 >6 >6 >6 >6 >6 >6 >6 >6 >6 >6 >6 >6
CIG -- -- -- -- -- -- -- -- -- -- -- -- -- --
Cover SCT SCT SCT SCT SCT SCT SCT SCT SCT SCT SCT SCT SCT SCT
FltCat VFR VFR VFR VFR VFR VFR VFR VFR VFR VFR VFR VFR VFR VFR
WX -- -- -- -- -- -- -- -- -- -- -- -- -- --
WDir 60 70 90 90 90 90 90 90 90 90 90 90 90 90
WSpd 14 15 15 15 15 15 15 15 15 15 15 15 15 15
WGst -- -- -- -- -- -- -- -- -- -- -- -- -- --
Raw TAF
KFLL 232346Z 2400/2506 07015KT P6SM SCT025 SCT035
  FM240200 09015KT P6SM SCT030
  FM241400 07015KT P6SM SCT035


Raw METAR
KFLL 240053Z 06014KT 10SM SCT035 26/18 A3008 RMK AO2 SLP187 T02560178
KFLL 232353Z 06011G19KT 10SM SCT032 SCT041 26/18 A3008 RMK AO2 SLP186 T02610183 10300 20261 53002
KFLL 232253Z 06013G22KT 10SM SCT028 BKN036 27/19 A3007 RMK AO2 SLP183 T02670194
KFLL 232153Z 04015G21KT 10SM FEW027 SCT035 28/20 A3007 RMK AO2 PK WND 06026/2104 SLP182 T02830200

METAR Board
Radar Display
Forecast Discussion
For situational awareness. Not to be used for flight planning purposes.